sensor_id;sensor_type;location;lat;lon;timestamp;pressure;altitude;pressure_sealevel;temperature;humidity
75945;BME280;64628;50.104;14.614;2023-03-01T00:02:22;99843.28;;;-1.07;43.60
75945;BME280;64628;50.104;14.614;2023-03-01T00:04:47;99845.44;;;-1.11;43.64
75945;BME280;64628;50.104;14.614;2023-03-01T00:07:12;99841.66;;;-1.19;43.77
75945;BME280;64628;50.104;14.614;2023-03-01T00:09:38;99839.28;;;-0.72;43.92
75945;BME280;64628;50.104;14.614;2023-03-01T00:12:04;99840.55;;;-1.28;44.09
75945;BME280;64628;50.104;14.614;2023-03-01T00:14:29;99839.78;;;-1.03;44.14
75945;BME280;64628;50.104;14.614;2023-03-01T00:16:55;99843.21;;;-1.05;44.08
75945;BME280;64628;50.104;14.614;2023-03-01T00:19:21;99847.42;;;-1.32;43.99
75945;BME280;64628;50.104;14.614;2023-03-01T00:21:46;99845.68;;;-1.32;44.03
75945;BME280;64628;50.104;14.614;2023-03-01T00:24:13;99843.89;;;-1.38;44.22
75945;BME280;64628;50.104;14.614;2023-03-01T00:26:37;99841.90;;;-1.16;44.33
75945;BME280;64628;50.104;14.614;2023-03-01T00:29:03;99839.08;;;-1.21;44.30
75945;BME280;64628;50.104;14.614;2023-03-01T00:31:31;99834.87;;;-1.47;44.45
75945;BME280;64628;50.104;14.614;2023-03-01T00:33:55;99831.67;;;-1.23;44.25
75945;BME280;64628;50.104;14.614;2023-03-01T00:36:19;99828.61;;;-1.02;44.46
75945;BME280;64628;50.104;14.614;2023-03-01T00:38:45;99822.90;;;-1.48;44.27
75945;BME280;64628;50.104;14.614;2023-03-01T00:41:13;99815.59;;;-1.07;44.53
75945;BME280;64628;50.104;14.614;2023-03-01T00:43:36;99817.20;;;-1.35;44.68
75945;BME280;64628;50.104;14.614;2023-03-01T00:46:01;99815.95;;;-1.64;44.61
75945;BME280;64628;50.104;14.614;2023-03-01T00:48:26;99815.41;;;-1.41;44.89
75945;BME280;64628;50.104;14.614;2023-03-01T00:50:52;99817.36;;;-1.47;44.69
75945;BME280;64628;50.104;14.614;2023-03-01T00:53:17;99814.72;;;-1.73;44.67
75945;BME280;64628;50.104;14.614;2023-03-01T00:55:42;99813.72;;;-1.29;44.68
75945;BME280;64628;50.104;14.614;2023-03-01T00:58:08;99815.65;;;-1.27;44.77
75945;BME280;64628;50.104;14.614;2023-03-01T01:00:33;99812.43;;;-1.30;44.87
75945;BME280;64628;50.104;14.614;2023-03-01T01:02:58;99814.67;;;-1.56;45.08
75945;BME280;64628;50.104;14.614;2023-03-01T01:05:24;99810.60;;;-1.62;45.07
75945;BME280;64628;50.104;14.614;2023-03-01T01:07:50;99802.21;;;-1.69;45.01
75945;BME280;64628;50.104;14.614;2023-03-01T01:10:16;99796.30;;;-1.50;45.14
75945;BME280;64628;50.104;14.614;2023-03-01T01:12:41;99790.07;;;-1.58;45.17
75945;BME280;64628;50.104;14.614;2023-03-01T01:15:08;99790.20;;;-1.60;45.46
75945;BME280;64628;50.104;14.614;2023-03-01T01:17:32;99790.68;;;-1.83;45.48
75945;BME280;64628;50.104;14.614;2023-03-01T01:19:58;99791.26;;;-1.57;45.32
75945;BME280;64628;50.104;14.614;2023-03-01T01:22:23;99792.46;;;-1.58;45.33
75945;BME280;64628;50.104;14.614;2023-03-01T01:24:49;99796.52;;;-1.65;45.24
75945;BME280;64628;50.104;14.614;2023-03-01T01:27:14;99792.23;;;-1.64;45.55
75945;BME280;64628;50.104;14.614;2023-03-01T01:29:39;99796.38;;;-1.84;45.41
75945;BME280;64628;50.104;14.614;2023-03-01T01:32:05;99791.74;;;-1.63;45.63
75945;BME280;64628;50.104;14.614;2023-03-01T01:34:30;99789.36;;;-1.87;45.57
75945;BME280;64628;50.104;14.614;2023-03-01T01:36:55;99789.43;;;-1.65;45.69
75945;BME280;64628;50.104;14.614;2023-03-01T01:39:22;99791.28;;;-1.66;45.66
75945;BME280;64628;50.104;14.614;2023-03-01T01:41:47;99790.85;;;-1.91;45.60
75945;BME280;64628;50.104;14.614;2023-03-01T01:44:15;99790.40;;;-1.65;45.44
75945;BME280;64628;50.104;14.614;2023-03-01T01:46:38;99788.00;;;-1.46;45.48
75945;BME280;64628;50.104;14.614;2023-03-01T01:49:05;99788.05;;;-1.93;45.61
75945;BME280;64628;50.104;14.614;2023-03-01T01:51:31;99784.53;;;-1.68;45.55
75945;BME280;64628;50.104;14.614;2023-03-01T01:53:58;99781.06;;;-1.68;45.82
75945;BME280;64628;50.104;14.614;2023-03-01T01:56:18;99785.10;;;-1.72;45.83
75945;BME280;64628;50.104;14.614;2023-03-01T01:58:44;99780.22;;;-1.72;45.76
75945;BME280;64628;50.104;14.614;2023-03-01T02:01:09;99779.59;;;-1.73;45.78
75945;BME280;64628;50.104;14.614;2023-03-01T02:03:37;99772.43;;;-1.89;45.69
75945;BME280;64628;50.104;14.614;2023-03-01T02:06:04;99770.57;;;-1.69;45.84
75945;BME280;64628;50.104;14.614;2023-03-01T02:08:29;99770.54;;;-1.35;45.68
75945;BME280;64628;50.104;14.614;2023-03-01T02:10:52;99762.73;;;-1.58;45.60
75945;BME280;64628;50.104;14.614;2023-03-01T02:13:16;99761.06;;;-1.83;45.68
75945;BME280;64628;50.104;14.614;2023-03-01T02:15:42;99761.80;;;-1.57;45.52
75945;BME280;64628;50.104;14.614;2023-03-01T02:18:09;99761.60;;;-1.59;45.56
75945;BME280;64628;50.104;14.614;2023-03-01T02:20:36;99762.73;;;-1.58;45.53
75945;BME280;64628;50.104;14.614;2023-03-01T02:22:58;99757.66;;;-1.84;45.50
75945;BME280;64628;50.104;14.614;2023-03-01T02:25:30;99753.16;;;-1.83;45.43
75945;BME280;64628;50.104;14.614;2023-03-01T02:27:53;99748.93;;;-1.76;45.40
75945;BME280;64628;50.104;14.614;2023-03-01T02:30:15;99747.19;;;-1.94;45.31
75945;BME280;64628;50.104;14.614;2023-03-01T02:32:41;99748.93;;;-1.59;44.79
75945;BME280;64628;50.104;14.614;2023-03-01T02:35:07;99751.72;;;-1.34;44.33
75945;BME280;64628;50.104;14.614;2023-03-01T02:37:31;99751.82;;;-1.70;44.01
75945;BME280;64628;50.104;14.614;2023-03-01T02:39:59;99754.54;;;-1.13;43.89
75945;BME280;64628;50.104;14.614;2023-03-01T02:42:25;99754.54;;;-1.13;43.82
75945;BME280;64628;50.104;14.614;2023-03-01T02:44:48;99756.97;;;-1.01;43.66
75945;BME280;64628;50.104;14.614;2023-03-01T02:47:13;99751.88;;;-1.49;43.65
75945;BME280;64628;50.104;14.614;2023-03-01T02:49:38;99751.34;;;-1.60;43.91
75945;BME280;64628;50.104;14.614;2023-03-01T02:54:34;99751.82;;;-1.54;43.77
75945;BME280;64628;50.104;14.614;2023-03-01T02:56:56;99753.45;;;-1.54;43.60
75945;BME280;64628;50.104;14.614;2023-03-01T02:59:24;99754.99;;;-1.32;43.53
75945;BME280;64628;50.104;14.614;2023-03-01T03:01:47;99756.76;;;-1.07;43.45
75945;BME280;64628;50.104;14.614;2023-03-01T03:04:15;99757.87;;;-1.09;43.42
75945;BME280;64628;50.104;14.614;2023-03-01T03:06:37;99753.57;;;-1.42;43.48
75945;BME280;64628;50.104;14.614;2023-03-01T03:09:03;99754.97;;;-1.23;43.61
75945;BME280;64628;50.104;14.614;2023-03-01T03:11:29;99751.04;;;-1.49;43.59
75945;BME280;64628;50.104;14.614;2023-03-01T03:13:54;99746.00;;;-1.20;43.53
75945;BME280;64628;50.104;14.614;2023-03-01T03:16:19;99741.65;;;-1.30;43.85
75945;BME280;64628;50.104;14.614;2023-03-01T03:18:45;99740.85;;;-1.78;43.82
75945;BME280;64628;50.104;14.614;2023-03-01T03:21:11;99741.30;;;-1.61;43.86
75945;BME280;64628;50.104;14.614;2023-03-01T03:23:36;99741.70;;;-1.40;43.92
75945;BME280;64628;50.104;14.614;2023-03-01T03:26:02;99740.52;;;-1.65;43.95
75945;BME280;64628;50.104;14.614;2023-03-01T03:28:27;99741.81;;;-1.35;43.94
75945;BME280;64628;50.104;14.614;2023-03-01T03:30:52;99738.96;;;-1.61;43.88
75945;BME280;64628;50.104;14.614;2023-03-01T03:33:18;99730.01;;;-1.65;43.86
75945;BME280;64628;50.104;14.614;2023-03-01T03:35:45;99729.10;;;-1.43;43.95
75945;BME280;64628;50.104;14.614;2023-03-01T03:38:10;99729.38;;;-1.49;44.00
75945;BME280;64628;50.104;14.614;2023-03-01T03:40:36;99726.35;;;-1.49;43.97
75945;BME280;64628;50.104;14.614;2023-03-01T03:43:00;99725.13;;;-1.57;44.02
75945;BME280;64628;50.104;14.614;2023-03-01T03:45:25;99724.92;;;-2.06;44.24
75945;BME280;64628;50.104;14.614;2023-03-01T03:47:50;99720.48;;;-1.53;44.20
75945;BME280;64628;50.104;14.614;2023-03-01T03:50:17;99723.54;;;-1.56;44.50
75945;BME280;64628;50.104;14.614;2023-03-01T03:52:42;99724.53;;;-1.57;44.67
75945;BME280;64628;50.104;14.614;2023-03-01T03:55:09;99723.27;;;-1.55;44.30
75945;BME280;64628;50.104;14.614;2023-03-01T03:57:32;99724.78;;;-1.66;44.42
75945;BME280;64628;50.104;14.614;2023-03-01T03:59:58;99719.86;;;-1.67;44.39
75945;BME280;64628;50.104;14.614;2023-03-01T04:02:23;99719.05;;;-1.67;44.44
75945;BME280;64628;50.104;14.614;2023-03-01T04:04:49;99720.74;;;-1.74;44.61
75945;BME280;64628;50.104;14.614;2023-03-01T04:07:14;99717.90;;;-1.77;44.56
75945;BME280;64628;50.104;14.614;2023-03-01T04:09:40;99717.03;;;-1.53;44.44
75945;BME280;64628;50.104;14.614;2023-03-01T04:12:06;99714.77;;;-1.84;44.85
75945;BME280;64628;50.104;14.614;2023-03-01T04:14:31;99713.06;;;-1.81;44.59
75945;BME280;64628;50.104;14.614;2023-03-01T04:16:56;99710.43;;;-1.89;44.74
75945;BME280;64628;50.104;14.614;2023-03-01T04:19:22;99710.63;;;-1.88;44.91
75945;BME280;64628;50.104;14.614;2023-03-01T04:21:47;99716.30;;;-1.91;44.84
75945;BME280;64628;50.104;14.614;2023-03-01T04:24:12;99717.09;;;-1.95;44.79
75945;BME280;64628;50.104;14.614;2023-03-01T04:26:38;99715.60;;;-1.97;44.76
75945;BME280;64628;50.104;14.614;2023-03-01T04:29:03;99719.79;;;-1.76;44.82
75945;BME280;64628;50.104;14.614;2023-03-01T04:31:29;99718.63;;;-1.80;44.82
75945;BME280;64628;50.104;14.614;2023-03-01T04:33:55;99721.01;;;-2.03;44.89
75945;BME280;64628;50.104;14.614;2023-03-01T04:36:21;99720.76;;;-1.81;44.82
75945;BME280;64628;50.104;14.614;2023-03-01T04:38:45;99726.77;;;-1.81;44.83
75945;BME280;64628;50.104;14.614;2023-03-01T04:41:11;99728.84;;;-2.01;44.72
75945;BME280;64628;50.104;14.614;2023-03-01T04:43:36;99730.98;;;-2.17;44.92
75945;BME280;64628;50.104;14.614;2023-03-01T04:46:02;99733.01;;;-1.95;44.90
75945;BME280;64628;50.104;14.614;2023-03-01T04:48:27;99735.45;;;-2.20;44.98
75945;BME280;64628;50.104;14.614;2023-03-01T04:50:52;99736.20;;;-2.02;45.15
75945;BME280;64628;50.104;14.614;2023-03-01T04:53:18;99736.34;;;-2.05;45.09
75945;BME280;64628;50.104;14.614;2023-03-01T04:55:43;99735.86;;;-2.30;45.22
75945;BME280;64628;50.104;14.614;2023-03-01T04:58:08;99734.42;;;-2.15;45.24
75945;BME280;64628;50.104;14.614;2023-03-01T05:00:34;99734.69;;;-2.15;45.45
75945;BME280;64628;50.104;14.614;2023-03-01T05:03:00;99731.83;;;-2.34;45.31
75945;BME280;64628;50.104;14.614;2023-03-01T05:05:27;99730.09;;;-2.09;45.14
75945;BME280;64628;50.104;14.614;2023-03-01T05:07:50;99728.14;;;-2.15;45.25
75945;BME280;64628;50.104;14.614;2023-03-01T05:10:16;99726.27;;;-2.11;45.04
75945;BME280;64628;50.104;14.614;2023-03-01T05:12:41;99719.42;;;-2.39;45.23
75945;BME280;64628;50.104;14.614;2023-03-01T05:15:07;99715.70;;;-1.92;45.46
75945;BME280;64628;50.104;14.614;2023-03-01T05:17:32;99710.97;;;-2.21;45.38
75945;BME280;64628;50.104;14.614;2023-03-01T05:19:57;99710.83;;;-2.41;45.39
75945;BME280;64628;50.104;14.614;2023-03-01T05:22:23;99716.08;;;-2.40;45.31
75945;BME280;64628;50.104;14.614;2023-03-01T05:24:48;99719.78;;;-1.95;45.22
75945;BME280;64628;50.104;14.614;2023-03-01T05:27:14;99715.74;;;-2.28;45.15
75945;BME280;64628;50.104;14.614;2023-03-01T05:29:40;99709.06;;;-2.39;45.34
75945;BME280;64628;50.104;14.614;2023-03-01T05:32:05;99704.56;;;-2.68;45.38
75945;BME280;64628;50.104;14.614;2023-03-01T05:34:33;99706.33;;;-2.18;45.28
75945;BME280;64628;50.104;14.614;2023-03-01T05:36:57;99708.59;;;-2.41;45.24
75945;BME280;64628;50.104;14.614;2023-03-01T05:39:24;99707.81;;;-2.46;45.18
75945;BME280;64628;50.104;14.614;2023-03-01T05:41:48;99709.38;;;-2.29;45.35
75945;BME280;64628;50.104;14.614;2023-03-01T05:44:13;99706.74;;;-2.22;45.66
75945;BME280;64628;50.104;14.614;2023-03-01T05:46:39;99705.78;;;-2.17;45.53
75945;BME280;64628;50.104;14.614;2023-03-01T05:49:05;99706.78;;;-2.62;45.42
75945;BME280;64628;50.104;14.614;2023-03-01T05:51:31;99706.19;;;-2.39;45.51
75945;BME280;64628;50.104;14.614;2023-03-01T05:53:56;99700.97;;;-2.36;45.45
75945;BME280;64628;50.104;14.614;2023-03-01T05:56:21;99700.49;;;-2.54;45.41
75945;BME280;64628;50.104;14.614;2023-03-01T05:58:48;99703.76;;;-2.26;45.38
75945;BME280;64628;50.104;14.614;2023-03-01T06:01:12;99706.22;;;-2.29;45.59
75945;BME280;64628;50.104;14.614;2023-03-01T06:03:37;99705.35;;;-2.52;45.64
75945;BME280;64628;50.104;14.614;2023-03-01T06:06:03;99709.26;;;-2.00;45.57
75945;BME280;64628;50.104;14.614;2023-03-01T06:08:28;99713.75;;;-2.29;45.72
75945;BME280;64628;50.104;14.614;2023-03-01T06:10:53;99716.31;;;-2.49;45.68
75945;BME280;64628;50.104;14.614;2023-03-01T06:13:18;99719.30;;;-2.38;45.56
75945;BME280;64628;50.104;14.614;2023-03-01T06:15:44;99721.22;;;-2.27;45.55
75945;BME280;64628;50.104;14.614;2023-03-01T06:18:09;99722.44;;;-2.18;45.47
75945;BME280;64628;50.104;14.614;2023-03-01T06:20:35;99724.44;;;-1.76;45.42
75945;BME280;64628;50.104;14.614;2023-03-01T06:23:01;99721.49;;;-1.85;45.32
75945;BME280;64628;50.104;14.614;2023-03-01T06:25:27;99723.34;;;-1.68;45.28
75945;BME280;64628;50.104;14.614;2023-03-01T06:27:52;99723.90;;;-1.43;44.82
75945;BME280;64628;50.104;14.614;2023-03-01T06:30:19;99724.87;;;-1.44;44.82
75945;BME280;64628;50.104;14.614;2023-03-01T06:32:43;99725.42;;;-1.15;44.44
75945;BME280;64628;50.104;14.614;2023-03-01T06:35:09;99719.86;;;-0.65;44.25
75945;BME280;64628;50.104;14.614;2023-03-01T06:37:34;99719.88;;;-0.92;43.97
75945;BME280;64628;50.104;14.614;2023-03-01T06:39:59;99716.49;;;-0.39;43.76
75945;BME280;64628;50.104;14.614;2023-03-01T06:42:25;99710.80;;;-0.62;43.46
75945;BME280;64628;50.104;14.614;2023-03-01T06:44:51;99709.94;;;0.01;42.79
75945;BME280;64628;50.104;14.614;2023-03-01T06:47:16;99707.26;;;0.52;42.05
75945;BME280;64628;50.104;14.614;2023-03-01T06:49:42;99711.45;;;0.66;41.87
75945;BME280;64628;50.104;14.614;2023-03-01T06:52:07;99710.62;;;0.36;41.60
75945;BME280;64628;50.104;14.614;2023-03-01T06:54:32;99713.20;;;1.00;41.00
75945;BME280;64628;50.104;14.614;2023-03-01T06:56:57;99710.80;;;1.09;40.41
75945;BME280;64628;50.104;14.614;2023-03-01T06:59:22;99713.85;;;1.21;39.62
75945;BME280;64628;50.104;14.614;2023-03-01T07:01:48;99713.26;;;2.05;38.83
75945;BME280;64628;50.104;14.614;2023-03-01T07:04:14;99713.90;;;2.59;37.34
75945;BME280;64628;50.104;14.614;2023-03-01T07:06:39;99714.81;;;2.96;36.98
75945;BME280;64628;50.104;14.614;2023-03-01T07:09:04;99712.54;;;3.28;36.17
75945;BME280;64628;50.104;14.614;2023-03-01T07:11:30;99716.04;;;4.15;34.76
75945;BME280;64628;50.104;14.614;2023-03-01T07:13:55;99712.35;;;5.29;32.75
75945;BME280;64628;50.104;14.614;2023-03-01T07:16:20;99713.94;;;6.18;31.68
75945;BME280;64628;50.104;14.614;2023-03-01T07:18:45;99716.52;;;7.56;29.84
75945;BME280;64628;50.104;14.614;2023-03-01T07:21:13;99714.68;;;7.69;28.44
75945;BME280;64628;50.104;14.614;2023-03-01T07:23:36;99711.88;;;8.44;27.37
75945;BME280;64628;50.104;14.614;2023-03-01T07:26:02;99710.37;;;8.51;27.66
75945;BME280;64628;50.104;14.614;2023-03-01T07:28:27;99709.52;;;9.84;26.09
75945;BME280;64628;50.104;14.614;2023-03-01T07:30:53;99707.03;;;10.41;25.07
75945;BME280;64628;50.104;14.614;2023-03-01T07:33:18;99707.75;;;11.00;24.16
75945;BME280;64628;50.104;14.614;2023-03-01T07:35:44;99707.80;;;11.64;23.43
75945;BME280;64628;50.104;14.614;2023-03-01T07:38:10;99705.87;;;12.35;22.70
75945;BME280;64628;50.104;14.614;2023-03-01T07:40:35;99707.68;;;12.66;22.38
75945;BME280;64628;50.104;14.614;2023-03-01T07:43:00;99706.48;;;13.32;21.78
75945;BME280;64628;50.104;14.614;2023-03-01T07:45:26;99701.21;;;13.16;21.59
75945;BME280;64628;50.104;14.614;2023-03-01T07:47:52;99704.20;;;12.71;21.92
75945;BME280;64628;50.104;14.614;2023-03-01T07:50:17;99701.52;;;12.70;22.42
75945;BME280;64628;50.104;14.614;2023-03-01T07:52:44;99699.46;;;11.74;23.41
75945;BME280;64628;50.104;14.614;2023-03-01T07:55:08;99699.49;;;11.65;23.55
75945;BME280;64628;50.104;14.614;2023-03-01T07:57:33;99698.97;;;11.67;23.54
75945;BME280;64628;50.104;14.614;2023-03-01T07:59:59;99702.66;;;11.16;24.08
75945;BME280;64628;50.104;14.614;2023-03-01T08:02:24;99698.63;;;11.10;24.15
75945;BME280;64628;50.104;14.614;2023-03-01T08:04:49;99699.44;;;11.16;24.48
75945;BME280;64628;50.104;14.614;2023-03-01T08:07:15;99696.17;;;11.25;24.13
75945;BME280;64628;50.104;14.614;2023-03-01T08:09:40;99695.41;;;10.55;24.77
75945;BME280;64628;50.104;14.614;2023-03-01T08:12:06;99696.55;;;10.49;25.57
75945;BME280;64628;50.104;14.614;2023-03-01T08:14:31;99697.39;;;10.24;25.46
75945;BME280;64628;50.104;14.614;2023-03-01T08:16:56;99696.46;;;10.04;25.86
75945;BME280;64628;50.104;14.614;2023-03-01T08:19:21;99692.13;;;9.86;25.80
75945;BME280;64628;50.104;14.614;2023-03-01T08:21:47;99692.55;;;9.73;25.87
75945;BME280;64628;50.104;14.614;2023-03-01T08:24:14;99690.16;;;9.30;26.07
75945;BME280;64628;50.104;14.614;2023-03-01T08:26:38;99689.07;;;9.27;26.28
75945;BME280;64628;50.104;14.614;2023-03-01T08:29:03;99681.09;;;8.90;26.92
75945;BME280;64628;50.104;14.614;2023-03-01T08:31:31;99682.07;;;9.46;26.62
75945;BME280;64628;50.104;14.614;2023-03-01T08:33:56;99680.60;;;9.78;26.08
75945;BME280;64628;50.104;14.614;2023-03-01T08:36:20;99678.97;;;9.12;25.90
75945;BME280;64628;50.104;14.614;2023-03-01T08:38:45;99677.87;;;9.37;26.72
75945;BME280;64628;50.104;14.614;2023-03-01T08:41:11;99677.34;;;9.53;26.06
75945;BME280;64628;50.104;14.614;2023-03-01T08:43:36;99673.43;;;9.69;25.51
75945;BME280;64628;50.104;14.614;2023-03-01T08:46:01;99675.67;;;9.90;25.67
75945;BME280;64628;50.104;14.614;2023-03-01T08:48:28;99674.54;;;10.70;24.59
75945;BME280;64628;50.104;14.614;2023-03-01T08:50:52;99677.31;;;10.84;24.64
75945;BME280;64628;50.104;14.614;2023-03-01T08:53:18;99672.99;;;11.42;23.08
75945;BME280;64628;50.104;14.614;2023-03-01T08:55:44;99671.47;;;11.91;22.56
75945;BME280;64628;50.104;14.614;2023-03-01T08:58:09;99671.56;;;11.87;22.07
75945;BME280;64628;50.104;14.614;2023-03-01T09:00:35;99668.51;;;12.85;21.90
75945;BME280;64628;50.104;14.614;2023-03-01T09:03:01;99662.87;;;13.64;20.62
75945;BME280;64628;50.104;14.614;2023-03-01T09:05:26;99659.66;;;14.98;19.29
75945;BME280;64628;50.104;14.614;2023-03-01T09:07:52;99653.23;;;15.78;18.39
75945;BME280;64628;50.104;14.614;2023-03-01T09:10:17;99649.92;;;16.33;18.15
75945;BME280;64628;50.104;14.614;2023-03-01T09:12:43;99643.38;;;17.41;16.88
75945;BME280;64628;50.104;14.614;2023-03-01T09:15:10;99638.38;;;18.46;16.51
75945;BME280;64628;50.104;14.614;2023-03-01T09:17:34;99640.87;;;19.08;15.95
75945;BME280;64628;50.104;14.614;2023-03-01T09:20:00;99636.25;;;19.71;15.26
75945;BME280;64628;50.104;14.614;2023-03-01T09:22:25;99637.19;;;19.16;14.80
75945;BME280;64628;50.104;14.614;2023-03-01T09:24:50;99633.28;;;19.73;14.64
75945;BME280;64628;50.104;14.614;2023-03-01T09:27:16;99633.60;;;21.19;14.19
75945;BME280;64628;50.104;14.614;2023-03-01T09:29:41;99623.35;;;22.06;13.17
75945;BME280;64628;50.104;14.614;2023-03-01T09:32:07;99623.85;;;23.36;12.18
75945;BME280;64628;50.104;14.614;2023-03-01T09:34:33;99620.01;;;23.54;12.19
75945;BME280;64628;50.104;14.614;2023-03-01T09:36:58;99618.71;;;23.95;11.88
75945;BME280;64628;50.104;14.614;2023-03-01T09:39:23;99617.56;;;24.75;11.38
75945;BME280;64628;50.104;14.614;2023-03-01T09:41:57;99618.67;;;25.40;11.20
75945;BME280;64628;50.104;14.614;2023-03-01T09:44:24;99615.60;;;25.93;10.76
75945;BME280;64628;50.104;14.614;2023-03-01T09:46:42;99611.54;;;25.53;10.25
75945;BME280;64628;50.104;14.614;2023-03-01T09:49:09;99607.81;;;26.19;10.50
75945;BME280;64628;50.104;14.614;2023-03-01T09:51:32;99607.23;;;25.49;10.39
75945;BME280;64628;50.104;14.614;2023-03-01T09:53:55;99602.00;;;26.18;10.25
75945;BME280;64628;50.104;14.614;2023-03-01T09:56:27;99598.98;;;26.55;9.47
75945;BME280;64628;50.104;14.614;2023-03-01T09:58:53;99596.60;;;26.03;9.83
75945;BME280;64628;50.104;14.614;2023-03-01T10:01:27;99593.92;;;25.98;10.06
75945;BME280;64628;50.104;14.614;2023-03-01T10:03:41;99592.96;;;26.20;9.98
75945;BME280;64628;50.104;14.614;2023-03-01T10:06:05;99586.37;;;26.69;9.73
75945;BME280;64628;50.104;14.614;2023-03-01T10:08:32;99583.79;;;27.41;9.61
75945;BME280;64628;50.104;14.614;2023-03-01T10:10:53;99582.16;;;26.95;9.46
75945;BME280;64628;50.104;14.614;2023-03-01T10:13:21;99582.04;;;27.31;9.48
75945;BME280;64628;50.104;14.614;2023-03-01T10:15:47;99580.54;;;27.56;9.48
75945;BME280;64628;50.104;14.614;2023-03-01T10:18:12;99582.79;;;27.44;9.56
75945;BME280;64628;50.104;14.614;2023-03-01T10:20:42;99575.84;;;27.58;8.98
75945;BME280;64628;50.104;14.614;2023-03-01T10:22:59;99571.60;;;27.72;9.13
75945;BME280;64628;50.104;14.614;2023-03-01T10:25:36;99573.57;;;27.48;9.64
75945;BME280;64628;50.104;14.614;2023-03-01T10:27:52;99567.11;;;27.30;9.65
75945;BME280;64628;50.104;14.614;2023-03-01T10:30:19;99567.90;;;27.02;9.32
75945;BME280;64628;50.104;14.614;2023-03-01T10:32:40;99571.71;;;27.02;9.42
75945;BME280;64628;50.104;14.614;2023-03-01T10:35:17;99570.97;;;26.93;9.70
75945;BME280;64628;50.104;14.614;2023-03-01T10:37:31;99569.62;;;26.91;9.80
75945;BME280;64628;50.104;14.614;2023-03-01T10:39:58;99569.39;;;26.02;9.94
75945;BME280;64628;50.104;14.614;2023-03-01T10:42:27;99569.03;;;26.13;10.05
75945;BME280;64628;50.104;14.614;2023-03-01T10:44:49;99562.63;;;26.53;9.87
75945;BME280;64628;50.104;14.614;2023-03-01T10:47:17;99558.03;;;25.25;10.25
75945;BME280;64628;50.104;14.614;2023-03-01T10:49:38;99561.29;;;25.18;10.36
75945;BME280;64628;50.104;14.614;2023-03-01T10:52:17;99561.82;;;25.31;10.92
75945;BME280;64628;50.104;14.614;2023-03-01T10:54:30;99563.28;;;24.97;10.81
75945;BME280;64628;50.104;14.614;2023-03-01T10:56:55;99556.21;;;24.88;10.53
75945;BME280;64628;50.104;14.614;2023-03-01T10:59:26;99546.55;;;24.09;11.82
75945;BME280;64628;50.104;14.614;2023-03-01T11:01:44;99541.83;;;23.90;11.84
75945;BME280;64628;50.104;14.614;2023-03-01T11:04:12;99543.47;;;23.32;11.79
75945;BME280;64628;50.104;14.614;2023-03-01T11:06:38;99534.40;;;22.52;12.08
75945;BME280;64628;50.104;14.614;2023-03-01T11:11:31;99530.91;;;21.50;13.14
75945;BME280;64628;50.104;14.614;2023-03-01T11:13:56;99527.29;;;20.93;13.39
75945;BME280;64628;50.104;14.614;2023-03-01T11:16:25;99525.87;;;20.80;14.19
75945;BME280;64628;50.104;14.614;2023-03-01T11:21:10;99516.48;;;19.36;14.79
75945;BME280;64628;50.104;14.614;2023-03-01T11:23:37;99518.87;;;19.13;15.59
75945;BME280;64628;50.104;14.614;2023-03-01T11:26:04;99517.59;;;18.73;15.39
75945;BME280;64628;50.104;14.614;2023-03-01T11:28:27;99510.29;;;18.62;16.01
75945;BME280;64628;50.104;14.614;2023-03-01T11:30:54;99508.54;;;18.73;16.04
75945;BME280;64628;50.104;14.614;2023-03-01T11:33:20;99508.78;;;18.13;16.52
75945;BME280;64628;50.104;14.614;2023-03-01T11:35:45;99501.61;;;17.97;16.42
75945;BME280;64628;50.104;14.614;2023-03-01T11:38:16;99501.08;;;17.58;17.40
75945;BME280;64628;50.104;14.614;2023-03-01T11:40:35;99493.99;;;17.33;16.89
75945;BME280;64628;50.104;14.614;2023-03-01T11:43:04;99495.22;;;16.73;17.47
75945;BME280;64628;50.104;14.614;2023-03-01T11:45:25;99491.47;;;16.98;17.85
75945;BME280;64628;50.104;14.614;2023-03-01T11:48:02;99489.46;;;16.71;18.08
75945;BME280;64628;50.104;14.614;2023-03-01T11:50:20;99489.03;;;16.15;18.27
75945;BME280;64628;50.104;14.614;2023-03-01T11:52:48;99483.57;;;16.31;18.62
75945;BME280;64628;50.104;14.614;2023-03-01T11:55:17;99480.26;;;16.40;19.09
75945;BME280;64628;50.104;14.614;2023-03-01T11:57:43;99482.33;;;15.79;18.53
75945;BME280;64628;50.104;14.614;2023-03-01T12:00:05;99484.01;;;15.37;19.41
75945;BME280;64628;50.104;14.614;2023-03-01T12:05:05;99480.41;;;15.15;19.69
75945;BME280;64628;50.104;14.614;2023-03-01T12:07:18;99468.84;;;14.89;19.83
75945;BME280;64628;50.104;14.614;2023-03-01T12:09:50;99462.79;;;14.67;19.74
75945;BME280;64628;50.104;14.614;2023-03-01T12:14:48;99463.12;;;15.01;20.53
75945;BME280;64628;50.104;14.614;2023-03-01T12:17:06;99455.73;;;14.67;20.24
75945;BME280;64628;50.104;14.614;2023-03-01T12:19:32;99457.53;;;14.58;20.34
75945;BME280;64628;50.104;14.614;2023-03-01T12:21:58;99455.46;;;14.81;19.74
75945;BME280;64628;50.104;14.614;2023-03-01T12:24:23;99455.01;;;14.74;20.48
75945;BME280;64628;50.104;14.614;2023-03-01T12:26:38;99451.74;;;14.82;20.46
75945;BME280;64628;50.104;14.614;2023-03-01T12:29:10;99446.20;;;14.33;20.59
75945;BME280;64628;50.104;14.614;2023-03-01T12:31:43;99441.20;;;14.27;20.72
75945;BME280;64628;50.104;14.614;2023-03-01T12:33:57;99441.45;;;14.44;20.52
75945;BME280;64628;50.104;14.614;2023-03-01T12:38:50;99440.50;;;14.49;20.15
75945;BME280;64628;50.104;14.614;2023-03-01T12:43:44;99436.88;;;14.05;20.54
75945;BME280;64628;50.104;14.614;2023-03-01T12:46:10;99437.20;;;13.47;20.83
75945;BME280;64628;50.104;14.614;2023-03-01T12:48:37;99433.39;;;13.95;20.58
75945;BME280;64628;50.104;14.614;2023-03-01T12:50:52;99432.97;;;13.74;20.71
75945;BME280;64628;50.104;14.614;2023-03-01T12:53:23;99427.96;;;13.26;20.94
75945;BME280;64628;50.104;14.614;2023-03-01T12:55:43;99428.88;;;13.37;21.29
75945;BME280;64628;50.104;14.614;2023-03-01T12:58:15;99429.72;;;14.01;20.89
75945;BME280;64628;50.104;14.614;2023-03-01T13:00:37;99426.95;;;13.40;20.34